createdAt,value
2023-05-17T00:01:48.478Z,100333.79
2023-05-17T00:04:15.152Z,100332.94
2023-05-17T00:06:41.996Z,100336.31
2023-05-17T00:09:09.164Z,100335.31
2023-05-17T00:11:35.940Z,100341.42
2023-05-17T00:14:02.567Z,100343.17
2023-05-17T00:16:29.247Z,100346.30
2023-05-17T00:18:55.990Z,100350.13
2023-05-17T00:21:22.719Z,100349.64
2023-05-17T00:23:49.398Z,100354.34
2023-05-17T00:26:16.051Z,100358.45
2023-05-17T00:28:43.618Z,100359.23
2023-05-17T00:31:10.541Z,100357.91
2023-05-17T00:33:37.248Z,100360.52
2023-05-17T00:36:04.436Z,100360.39
2023-05-17T00:38:31.192Z,100359.98
2023-05-17T00:40:57.869Z,100359.86
2023-05-17T00:43:26.333Z,100359.36
2023-05-17T00:45:53.187Z,100356.66
2023-05-17T00:48:25.672Z,100361.10
2023-05-17T00:50:53.654Z,100357.75
2023-05-17T00:53:20.420Z,100360.62
2023-05-17T00:55:47.096Z,100361.98
2023-05-17T00:58:14.402Z,100362.57
2023-05-17T01:00:41.194Z,100361.27
2023-05-17T01:03:08.276Z,100359.01
2023-05-17T01:05:35.096Z,100361.41
2023-05-17T01:08:02.866Z,100361.37
2023-05-17T01:10:41.591Z,100361.08
2023-05-17T01:13:16.003Z,100360.47
2023-05-17T01:15:45.756Z,100363.46
2023-05-17T01:18:22.043Z,100365.09
2023-05-17T01:20:48.877Z,100359.45
2023-05-17T01:23:34.401Z,100356.05
2023-05-17T01:26:10.952Z,100358.38
2023-05-17T01:28:38.365Z,100356.88
2023-05-17T01:31:05.123Z,100356.34
2023-05-17T01:33:32.007Z,100356.12
2023-05-17T01:35:58.854Z,100353.11
2023-05-17T01:38:25.532Z,100356.55
2023-05-17T01:40:57.295Z,100355.46
2023-05-17T01:43:52.257Z,100352.80
2023-05-17T01:46:18.911Z,100357.13
2023-05-17T01:48:50.230Z,100353.50
2023-05-17T01:51:18.984Z,100352.48
2023-05-17T01:53:51.559Z,100345.17
2023-05-17T01:56:22.403Z,100348.36
2023-05-17T01:58:49.152Z,100348.27
2023-05-17T02:01:16.416Z,100348.70
2023-05-17T02:03:43.153Z,100345.45
2023-05-17T02:06:09.983Z,100348.60
2023-05-17T02:08:36.680Z,100353.23
2023-05-17T02:11:03.659Z,100356.41
2023-05-17T02:13:30.890Z,100360.87
2023-05-17T02:16:01.702Z,100361.46
2023-05-17T02:18:29.107Z,100360.98
2023-05-17T02:20:56.232Z,100361.52
2023-05-17T02:23:25.025Z,100366.16
2023-05-17T02:25:52.694Z,100364.45
2023-05-17T02:28:19.442Z,100366.60
2023-05-17T02:30:46.247Z,100363.94
2023-05-17T02:33:13.503Z,100371.47
2023-05-17T02:35:40.370Z,100374.27
2023-05-17T02:38:07.082Z,100375.77
2023-05-17T02:40:33.765Z,100375.13
2023-05-17T02:43:02.838Z,100373.63
2023-05-17T02:45:29.721Z,100377.88
2023-05-17T02:47:56.618Z,100378.63
2023-05-17T02:50:23.289Z,100383.77
2023-05-17T02:52:50.917Z,100387.79
2023-05-17T02:55:17.846Z,100386.54
2023-05-17T02:57:44.785Z,100387.88
2023-05-17T03:00:11.947Z,100388.63
2023-05-17T03:02:38.760Z,100386.39
2023-05-17T03:05:06.627Z,100390.91
2023-05-17T03:07:33.320Z,100392.28
2023-05-17T03:10:00.152Z,100395.39
2023-05-17T03:12:30.946Z,100394.43
2023-05-17T03:14:57.856Z,100392.52
2023-05-17T03:17:24.652Z,100392.73
2023-05-17T03:19:51.509Z,100395.64
2023-05-17T03:22:18.376Z,100399.35
2023-05-17T03:24:45.008Z,100400.38
2023-05-17T03:27:11.833Z,100397.94
2023-05-17T03:29:39.827Z,100402.80
2023-05-17T03:32:06.992Z,100406.02
2023-05-17T03:34:33.961Z,100404.55
2023-05-17T03:37:01.404Z,100404.86
2023-05-17T03:39:28.090Z,100404.30
2023-05-17T03:41:55.019Z,100409.96
2023-05-17T03:44:22.540Z,100408.81
2023-05-17T03:46:49.730Z,100411.23
2023-05-17T03:49:17.539Z,100413.21
2023-05-17T03:51:45.279Z,100415.81
2023-05-17T03:54:12.062Z,100417.42
2023-05-17T03:56:38.801Z,100422.02
2023-05-17T03:59:05.663Z,100428.42
2023-05-17T04:01:33.330Z,100433.70
2023-05-17T04:04:01.400Z,100434.87
2023-05-17T04:06:28.402Z,100432.80
2023-05-17T04:08:55.802Z,100439.81
2023-05-17T04:11:24.432Z,100438.98
2023-05-17T04:13:51.776Z,100436.24
2023-05-17T04:16:18.582Z,100441.48
2023-05-17T04:18:45.763Z,100444.67
2023-05-17T04:21:12.838Z,100449.32
2023-05-17T04:23:39.708Z,100450.84
2023-05-17T04:26:06.384Z,100455.14
2023-05-17T04:28:35.489Z,100454.48
2023-05-17T04:31:02.803Z,100456.60
2023-05-17T04:33:29.718Z,100458.67
2023-05-17T04:35:57.331Z,100460.77
2023-05-17T04:38:25.194Z,100459.86
2023-05-17T04:40:52.141Z,100461.95
2023-05-17T04:43:19.264Z,100460.80
2023-05-17T04:45:46.819Z,100461.48
2023-05-17T04:48:15.044Z,100458.60
2023-05-17T04:50:45.652Z,100463.70
2023-05-17T04:53:12.307Z,100466.59
2023-05-17T04:55:39.064Z,100470.52
2023-05-17T04:58:05.933Z,100473.80
2023-05-17T05:00:33.454Z,100479.23
2023-05-17T05:03:05.127Z,100477.39
2023-05-17T05:05:32.261Z,100480.05
2023-05-17T05:07:59.054Z,100472.34
2023-05-17T05:10:28.840Z,100477.11
2023-05-17T05:12:56.240Z,100478.60
2023-05-17T05:15:23.315Z,100481.66
2023-05-17T05:17:54.825Z,100477.52
2023-05-17T05:20:21.769Z,100483.04
2023-05-17T05:22:48.403Z,100485.94
2023-05-17T05:25:17.102Z,100487.52
2023-05-17T05:27:44.544Z,100491.21
2023-05-17T05:30:12.466Z,100492.83
2023-05-17T05:32:39.440Z,100488.58
2023-05-17T05:35:07.022Z,100485.67
2023-05-17T05:37:33.977Z,100489.42
2023-05-17T05:40:01.122Z,100491.88
2023-05-17T05:42:29.717Z,100492.74
2023-05-17T05:44:56.384Z,100495.46
2023-05-17T05:47:23.578Z,100499.63
2023-05-17T05:49:50.665Z,100496.92
2023-05-17T05:52:17.567Z,100496.52
2023-05-17T05:54:45.152Z,100502.33
2023-05-17T05:57:11.836Z,100501.98
2023-05-17T05:59:39.496Z,100505.45
2023-05-17T06:02:06.826Z,100505.92
2023-05-17T06:04:44.475Z,100508.50
2023-05-17T06:07:13.058Z,100510.35
2023-05-17T06:09:39.702Z,100512.73
2023-05-17T06:12:06.530Z,100512.86
2023-05-17T06:14:33.211Z,100512.67
2023-05-17T06:16:59.863Z,100517.89
2023-05-17T06:19:26.659Z,100520.02
2023-05-17T06:21:53.566Z,100522.46
2023-05-17T06:24:20.300Z,100517.96
2023-05-17T06:26:49.880Z,100522.38
2023-05-17T06:29:16.563Z,100518.14
2023-05-17T06:31:43.228Z,100518.56
2023-05-17T06:34:10.008Z,100520.18
2023-05-17T06:36:38.465Z,100524.16
2023-05-17T06:39:05.566Z,100527.33
2023-05-17T06:41:32.307Z,100533.69
2023-05-17T06:43:59.006Z,100532.80
2023-05-17T06:46:28.472Z,100527.33
2023-05-17T06:48:55.806Z,100522.98
2023-05-17T06:51:22.562Z,100529.81
2023-05-17T06:53:50.370Z,100526.23
2023-05-17T06:56:17.124Z,100523.42
2023-05-17T06:58:43.777Z,100519.44
2023-05-17T07:01:10.458Z,100523.83
2023-05-17T07:03:40.066Z,100524.60
2023-05-17T07:06:06.986Z,100519.31
2023-05-17T07:08:34.873Z,100518.75
2023-05-17T07:11:02.991Z,100517.98
2023-05-17T07:13:30.286Z,100516.77
2023-05-17T07:15:57.014Z,100510.85
2023-05-17T07:18:23.780Z,100513.13
2023-05-17T07:20:50.788Z,100511.64
2023-05-17T07:23:18.236Z,100516.73
2023-05-17T07:25:46.352Z,100517.80
2023-05-17T07:28:13.043Z,100516.10
2023-05-17T07:30:39.733Z,100520.88
2023-05-17T07:33:06.369Z,100519.45
2023-05-17T07:35:33.189Z,100522.08
2023-05-17T07:37:59.822Z,100522.94
2023-05-17T07:40:26.465Z,100524.86
2023-05-17T07:42:53.178Z,100521.38
2023-05-17T07:45:19.819Z,100522.88
2023-05-17T07:47:46.721Z,100520.48
2023-05-17T07:50:13.847Z,100523.02
2023-05-17T07:52:40.580Z,100524.18
2023-05-17T07:55:07.979Z,100521.88
2023-05-17T07:57:34.759Z,100521.63
2023-05-17T08:00:01.477Z,100524.18
2023-05-17T08:02:39.200Z,100523.39
2023-05-17T08:05:07.565Z,100524.92
2023-05-17T08:07:34.550Z,100523.15
2023-05-17T08:10:01.314Z,100524.61
2023-05-17T08:12:28.361Z,100525.51
2023-05-17T08:14:55.037Z,100528.60
2023-05-17T08:17:22.557Z,100524.18
2023-05-17T08:19:49.383Z,100526.09
2023-05-17T08:22:16.361Z,100527.08
2023-05-17T08:24:45.170Z,100526.70
2023-05-17T08:27:11.892Z,100529.86
2023-05-17T08:29:39.749Z,100534.34
2023-05-17T08:32:07.517Z,100539.16
2023-05-17T08:34:34.119Z,100541.84
2023-05-17T08:37:00.872Z,100542.41
2023-05-17T08:39:27.791Z,100542.78
2023-05-17T08:41:59.591Z,100541.45
2023-05-17T08:44:28.230Z,100544.41
2023-05-17T08:46:55.182Z,100545.86
2023-05-17T08:49:26.000Z,100544.09
2023-05-17T08:51:54.126Z,100543.45
2023-05-17T08:54:22.740Z,100541.92
2023-05-17T08:56:52.312Z,100539.36
2023-05-17T08:59:22.095Z,100542.20
2023-05-17T09:01:52.083Z,100537.52
2023-05-17T09:04:18.856Z,100536.75
2023-05-17T09:06:45.886Z,100536.66
2023-05-17T09:09:12.650Z,100536.52
2023-05-17T09:13:07.130Z,100534.09
2023-05-17T09:15:34.432Z,100535.60
2023-05-17T09:18:01.378Z,100534.59
2023-05-17T09:20:35.083Z,100531.80
2023-05-17T09:23:02.281Z,100531.27
2023-05-17T09:25:29.251Z,100532.79
2023-05-17T09:28:02.252Z,100530.83
2023-05-17T09:30:33.161Z,100534.15
2023-05-17T09:33:07.516Z,100536.45
2023-05-17T09:35:35.090Z,100529.45
2023-05-17T09:38:12.574Z,100530.17
2023-05-17T09:40:43.358Z,100526.42
2023-05-17T09:43:11.014Z,100530.60
2023-05-17T09:45:37.940Z,100531.14
2023-05-17T09:48:15.218Z,100535.13
2023-05-17T09:50:52.412Z,100528.05
2023-05-17T09:53:29.438Z,100523.70
2023-05-17T09:55:57.393Z,100524.19
2023-05-17T09:58:24.745Z,100525.80
2023-05-17T10:01:01.929Z,100521.30
2023-05-17T10:03:34.327Z,100521.41
2023-05-17T10:06:03.972Z,100521.64
2023-05-17T10:08:31.019Z,100518.34
2023-05-17T10:11:06.114Z,100524.91
2023-05-17T10:13:36.219Z,100524.32
2023-05-17T10:16:02.921Z,100518.41
2023-05-17T10:18:30.273Z,100524.14
2023-05-17T10:20:57.166Z,100523.10
2023-05-17T10:23:23.807Z,100523.26
2023-05-17T10:25:50.888Z,100523.38
2023-05-17T10:28:18.052Z,100523.37
2023-05-17T10:30:44.709Z,100521.18
2023-05-17T10:33:11.774Z,100521.63
2023-05-17T10:35:39.401Z,100519.52
2023-05-17T10:38:07.545Z,100518.98
2023-05-17T10:40:34.557Z,100516.84
2023-05-17T10:43:01.776Z,100516.17
2023-05-17T10:45:28.799Z,100515.38
2023-05-17T10:47:56.129Z,100512.75
2023-05-17T10:50:24.844Z,100515.20
2023-05-17T10:52:52.387Z,100512.56
2023-05-17T10:55:36.560Z,100506.30
2023-05-17T10:58:16.743Z,100508.17
2023-05-17T11:00:46.000Z,100508.05
2023-05-17T11:03:14.022Z,100505.77
2023-05-17T11:06:13.232Z,100503.30
2023-05-17T11:09:05.928Z,100499.05
2023-05-17T11:11:32.608Z,100499.58
2023-05-17T11:14:03.048Z,100501.27
2023-05-17T11:16:37.021Z,100500.85
2023-05-17T11:19:10.759Z,100498.15
2023-05-17T11:21:47.470Z,100500.91
2023-05-17T11:24:24.071Z,100496.94
2023-05-17T11:26:50.779Z,100496.91
2023-05-17T11:29:17.544Z,100492.20
2023-05-17T11:31:45.235Z,100491.60
2023-05-17T11:34:12.375Z,100489.73
2023-05-17T11:36:52.108Z,100489.21
2023-05-17T11:39:23.088Z,100488.10
2023-05-17T11:41:50.660Z,100490.09
2023-05-17T11:44:25.352Z,100489.01
2023-05-17T11:46:52.267Z,100487.64
2023-05-17T11:49:34.349Z,100483.87
2023-05-17T11:52:02.975Z,100481.88
2023-05-17T11:54:29.673Z,100480.42
2023-05-17T11:56:56.312Z,100481.45
2023-05-17T11:59:23.041Z,100486.42
2023-05-17T12:01:51.180Z,100488.63
2023-05-17T12:04:25.730Z,100487.53
2023-05-17T12:06:53.660Z,100485.30
2023-05-17T12:09:21.307Z,100483.04
2023-05-17T12:11:48.205Z,100485.71
2023-05-17T12:14:16.698Z,100480.08
2023-05-17T12:16:44.517Z,100480.02
2023-05-17T12:19:25.019Z,100482.30
2023-05-17T12:21:51.821Z,100475.52
2023-05-17T12:24:18.660Z,100471.62
2023-05-17T12:26:46.377Z,100471.55
2023-05-17T12:29:17.969Z,100474.24
2023-05-17T12:31:47.081Z,100470.66
2023-05-17T12:34:14.341Z,100466.14
2023-05-17T12:36:41.182Z,100461.91
2023-05-17T12:39:09.478Z,100460.02
2023-05-17T12:41:37.166Z,100459.22
2023-05-17T12:44:14.411Z,100457.01
2023-05-17T12:46:41.756Z,100454.92
2023-05-17T12:49:09.357Z,100454.64
2023-05-17T12:51:45.764Z,100454.10
2023-05-17T12:54:16.006Z,100449.86
2023-05-17T12:56:45.671Z,100448.96
2023-05-17T12:59:17.156Z,100449.10
2023-05-17T13:01:47.273Z,100448.88
2023-05-17T13:04:15.022Z,100445.23
2023-05-17T13:06:50.936Z,100445.48
2023-05-17T13:09:18.712Z,100444.80
2023-05-17T13:11:52.275Z,100442.47
2023-05-17T13:14:38.328Z,100442.48
2023-05-17T13:17:07.135Z,100444.32
2023-05-17T13:19:35.892Z,100438.83
2023-05-17T13:22:03.758Z,100440.63
2023-05-17T13:24:31.530Z,100440.95
2023-05-17T13:26:58.372Z,100439.73
2023-05-17T13:29:37.998Z,100437.88
2023-05-17T13:32:07.238Z,100433.41
2023-05-17T13:34:33.894Z,100434.75
2023-05-17T13:37:00.557Z,100432.58
2023-05-17T13:39:27.418Z,100431.70
2023-05-17T13:41:54.366Z,100425.85
2023-05-17T13:44:21.330Z,100424.96
2023-05-17T13:46:48.022Z,100421.55
2023-05-17T13:49:14.756Z,100417.80
2023-05-17T13:51:42.626Z,100420.06
2023-05-17T13:54:10.645Z,100417.15
2023-05-17T13:56:37.430Z,100417.57
2023-05-17T13:59:04.294Z,100419.73
2023-05-17T14:01:31.795Z,100422.07
2023-05-17T14:04:00.878Z,100421.38
2023-05-17T14:06:28.398Z,100421.36
2023-05-17T14:08:57.162Z,100423.59
2023-05-17T14:11:23.852Z,100425.90
2023-05-17T14:13:50.683Z,100426.16
2023-05-17T14:16:17.345Z,100423.33
2023-05-17T14:18:44.109Z,100422.59
2023-05-17T14:21:11.110Z,100416.90
2023-05-17T14:23:37.849Z,100421.34
2023-05-17T14:26:07.635Z,100419.55
2023-05-17T14:28:38.193Z,100423.39
2023-05-17T14:31:06.704Z,100417.25
2023-05-17T14:33:33.605Z,100412.92
2023-05-17T14:36:00.595Z,100413.38
2023-05-17T14:38:27.300Z,100412.86
2023-05-17T14:40:54.002Z,100410.70
2023-05-17T14:43:21.112Z,100408.73
2023-05-17T14:45:47.831Z,100404.72
2023-05-17T14:48:14.548Z,100405.95
2023-05-17T14:50:41.611Z,100407.60
2023-05-17T14:53:08.336Z,100410.98
2023-05-17T14:55:35.628Z,100411.80
2023-05-17T14:58:02.729Z,100411.17
2023-05-17T15:00:29.590Z,100409.30
2023-05-17T15:02:56.863Z,100406.86
2023-05-17T15:05:24.440Z,100408.41
2023-05-17T15:07:51.351Z,100408.20
2023-05-17T15:10:18.161Z,100409.80
2023-05-17T15:12:44.869Z,100405.19
2023-05-17T15:15:12.636Z,100403.90
2023-05-17T15:17:39.324Z,100402.71
2023-05-17T15:20:07.535Z,100399.48
2023-05-17T15:22:34.306Z,100403.45
2023-05-17T15:25:01.259Z,100400.61
2023-05-17T15:27:27.951Z,100404.00
2023-05-17T15:29:54.817Z,100400.02
2023-05-17T15:32:21.596Z,100401.37
2023-05-17T15:34:48.424Z,100399.27
2023-05-17T15:37:15.293Z,100401.05
2023-05-17T15:39:41.953Z,100401.36
2023-05-17T15:42:08.643Z,100403.68
2023-05-17T15:44:35.563Z,100404.83
2023-05-17T15:47:03.539Z,100397.58
2023-05-17T15:49:30.506Z,100399.20
2023-05-17T15:51:57.444Z,100398.98
2023-05-17T15:54:24.144Z,100398.77
2023-05-17T15:56:51.084Z,100398.66
2023-05-17T15:59:17.800Z,100396.02
2023-05-17T16:01:46.400Z,100397.64
2023-05-17T16:04:13.860Z,100397.87
2023-05-17T16:06:41.238Z,100397.96
2023-05-17T16:09:08.597Z,100402.77
2023-05-17T16:11:35.343Z,100402.70
2023-05-17T16:14:02.200Z,100400.03
2023-05-17T16:16:28.915Z,100402.00
2023-05-17T16:18:55.855Z,100401.45
2023-05-17T16:21:22.895Z,100399.20
2023-05-17T16:23:49.657Z,100400.11
2023-05-17T16:26:16.322Z,100397.51
2023-05-17T16:28:43.013Z,100398.64
2023-05-17T16:31:09.790Z,100396.71
2023-05-17T16:33:36.726Z,100399.36
2023-05-17T16:36:04.869Z,100401.88
2023-05-17T16:38:31.537Z,100402.59
2023-05-17T16:41:03.117Z,100401.84
2023-05-17T16:43:31.057Z,100401.03
2023-05-17T16:45:57.737Z,100399.67
2023-05-17T16:48:24.609Z,100402.42
2023-05-17T16:50:51.620Z,100402.73
2023-05-17T16:53:18.986Z,100403.60
2023-05-17T16:55:45.804Z,100407.91
2023-05-17T16:58:13.259Z,100407.58
2023-05-17T17:00:39.993Z,100404.54
2023-05-17T17:03:09.469Z,100404.95
2023-05-17T17:05:37.324Z,100406.55
2023-05-17T17:08:04.189Z,100404.27
2023-05-17T17:10:31.284Z,100408.89
2023-05-17T17:12:58.340Z,100408.50
2023-05-17T17:15:25.027Z,100408.91
2023-05-17T17:17:52.479Z,100408.91
2023-05-17T17:20:19.813Z,100409.55
2023-05-17T17:22:47.009Z,100405.02
2023-05-17T17:25:13.651Z,100411.10
2023-05-17T17:27:40.497Z,100414.75
2023-05-17T17:30:10.327Z,100414.27
2023-05-17T17:32:37.137Z,100413.48
2023-05-17T17:35:04.418Z,100417.33
2023-05-17T17:37:31.249Z,100418.46
2023-05-17T17:39:57.875Z,100417.92
2023-05-17T17:42:24.557Z,100415.41
2023-05-17T17:44:51.313Z,100417.78
2023-05-17T17:47:18.050Z,100414.27
2023-05-17T17:49:44.800Z,100420.63
2023-05-17T17:52:11.457Z,100424.24
2023-05-17T17:54:38.264Z,100421.80
2023-05-17T17:57:05.390Z,100421.12
2023-05-17T17:59:32.305Z,100421.58
2023-05-17T18:01:59.842Z,100423.20
2023-05-17T18:04:27.393Z,100426.30
2023-05-17T18:06:55.042Z,100424.89
2023-05-17T18:09:22.945Z,100426.66
2023-05-17T18:11:49.734Z,100427.46
2023-05-17T18:14:16.426Z,100429.20
2023-05-17T18:16:43.342Z,100427.95
2023-05-17T18:19:10.153Z,100426.39
2023-05-17T18:21:36.925Z,100432.76
2023-05-17T18:24:03.846Z,100430.30
2023-05-17T18:26:30.654Z,100430.11
2023-05-17T18:28:57.310Z,100431.09
2023-05-17T18:31:23.966Z,100430.46
2023-05-17T18:33:50.912Z,100428.52
2023-05-17T18:36:17.615Z,100427.56
2023-05-17T18:38:44.592Z,100429.71
2023-05-17T18:41:11.375Z,100429.95
2023-05-17T18:43:38.076Z,100436.05
2023-05-17T18:46:04.730Z,100436.11
2023-05-17T18:48:36.146Z,100435.48
2023-05-17T18:51:03.069Z,100438.58
2023-05-17T18:53:30.066Z,100438.03
2023-05-17T18:56:01.523Z,100440.36
2023-05-17T18:58:29.108Z,100442.70
2023-05-17T19:00:56.065Z,100439.87
2023-05-17T19:03:22.927Z,100440.60
2023-05-17T19:05:49.617Z,100442.11
2023-05-17T19:08:16.269Z,100445.10
2023-05-17T19:10:42.960Z,100445.96
2023-05-17T19:13:09.868Z,100447.67
2023-05-17T19:15:36.646Z,100446.30
2023-05-17T19:18:03.395Z,100447.66
2023-05-17T19:20:30.888Z,100451.86
2023-05-17T19:22:57.992Z,100451.41
2023-05-17T19:25:24.701Z,100457.40
2023-05-17T19:27:51.567Z,100458.84
2023-05-17T19:30:18.740Z,100451.21
2023-05-17T19:32:45.627Z,100456.55
2023-05-17T19:35:12.423Z,100459.64
2023-05-17T19:37:39.104Z,100455.11
2023-05-17T19:40:06.558Z,100455.30
2023-05-17T19:42:33.369Z,100456.57
2023-05-17T19:45:00.064Z,100458.34
2023-05-17T19:47:27.195Z,100458.30
2023-05-17T19:49:53.973Z,100460.84
2023-05-17T19:52:20.682Z,100463.66
2023-05-17T19:54:47.793Z,100459.95
2023-05-17T19:57:14.478Z,100457.66
2023-05-17T19:59:42.088Z,100459.98
2023-05-17T20:02:09.309Z,100458.61
2023-05-17T20:04:36.264Z,100455.63
2023-05-17T20:07:02.903Z,100456.10
2023-05-17T20:09:32.036Z,100460.61
2023-05-17T20:11:58.763Z,100464.15
2023-05-17T20:14:26.955Z,100461.58
2023-05-17T20:16:53.959Z,100462.09
2023-05-17T20:19:20.942Z,100465.48
2023-05-17T20:21:48.263Z,100465.52
2023-05-17T20:24:14.993Z,100465.15
2023-05-17T20:26:44.985Z,100467.47
2023-05-17T20:29:12.176Z,100471.58
2023-05-17T20:31:38.902Z,100473.86
2023-05-17T20:34:06.585Z,100473.11
2023-05-17T20:36:33.786Z,100473.67
2023-05-17T20:39:00.806Z,100473.21
2023-05-17T20:41:27.613Z,100473.41
2023-05-17T20:43:54.652Z,100471.23
2023-05-17T20:46:21.596Z,100475.79
2023-05-17T20:48:49.915Z,100479.74
2023-05-17T20:51:18.172Z,100475.02
2023-05-17T20:53:46.414Z,100474.56
2023-05-17T20:56:14.299Z,100477.02
2023-05-17T20:58:41.329Z,100475.85
2023-05-17T21:01:08.168Z,100479.08
2023-05-17T21:03:35.131Z,100479.10
2023-05-17T21:06:02.143Z,100478.50
2023-05-17T21:08:29.160Z,100479.98
2023-05-17T21:10:56.171Z,100479.46
2023-05-17T21:13:25.720Z,100483.75
2023-05-17T21:15:55.907Z,100486.14
2023-05-17T21:18:23.730Z,100483.84
2023-05-17T21:20:51.131Z,100484.16
2023-05-17T21:23:18.391Z,100489.26
2023-05-17T21:25:45.066Z,100490.18
2023-05-17T21:31:09.344Z,100487.27
2023-05-17T21:33:36.194Z,100482.55
2023-05-17T21:36:03.289Z,100481.55
2023-05-17T21:38:30.133Z,100481.33
2023-05-17T21:40:56.764Z,100480.54
2023-05-17T21:43:23.464Z,100479.23
2023-05-17T21:45:50.160Z,100481.60
2023-05-17T21:48:16.857Z,100480.67
2023-05-17T21:50:43.528Z,100488.60
2023-05-17T21:53:10.371Z,100484.89
2023-05-17T21:55:56.280Z,100484.96
2023-05-17T21:58:23.785Z,100482.19
2023-05-17T22:00:50.582Z,100485.04
2023-05-17T22:03:17.348Z,100487.63
2023-05-17T22:05:44.067Z,100485.30
2023-05-17T22:08:10.739Z,100487.34
2023-05-17T22:10:37.413Z,100487.39
2023-05-17T22:13:06.212Z,100496.36
2023-05-17T22:15:33.151Z,100493.02
2023-05-17T22:18:03.324Z,100489.15
2023-05-17T22:20:30.527Z,100488.04
2023-05-17T22:22:57.664Z,100484.30
2023-05-17T22:25:24.307Z,100485.17
2023-05-17T22:27:51.142Z,100489.33
2023-05-17T22:30:17.851Z,100489.80
2023-05-17T22:32:44.548Z,100487.35
2023-05-17T22:35:11.328Z,100486.42
2023-05-17T22:37:38.238Z,100488.25
2023-05-17T22:40:06.637Z,100490.50
2023-05-17T22:42:33.320Z,100492.33
2023-05-17T22:45:00.195Z,100491.56
2023-05-17T22:47:27.219Z,100491.77
2023-05-17T22:49:53.887Z,100494.35
2023-05-17T22:52:20.709Z,100494.46
2023-05-17T22:54:47.421Z,100494.55
2023-05-17T22:57:14.236Z,100494.98
2023-05-17T22:59:43.862Z,100501.31
2023-05-17T23:02:11.882Z,100501.75
2023-05-17T23:04:40.011Z,100501.75
2023-05-17T23:07:10.125Z,100503.48
2023-05-17T23:09:40.741Z,100503.67
2023-05-17T23:12:09.059Z,100506.89
2023-05-17T23:14:36.444Z,100510.20
2023-05-17T23:17:04.175Z,100513.92
2023-05-17T23:19:31.592Z,100513.36
2023-05-17T23:22:02.816Z,100512.56
2023-05-17T23:24:29.583Z,100512.60
2023-05-17T23:26:56.277Z,100513.99
2023-05-17T23:29:24.050Z,100519.58
2023-05-17T23:31:50.927Z,100519.51
2023-05-17T23:34:17.750Z,100520.39
2023-05-17T23:36:44.428Z,100521.03
2023-05-17T23:39:11.133Z,100518.95
2023-05-17T23:41:37.871Z,100516.75
2023-05-17T23:44:05.208Z,100520.19
2023-05-17T23:46:32.100Z,100522.55
2023-05-17T23:48:58.791Z,100520.46
2023-05-17T23:51:25.518Z,100521.33
2023-05-17T23:53:52.480Z,100521.15
2023-05-17T23:56:19.426Z,100519.48
2023-05-17T23:58:46.318Z,100522.55
